Time;durP1;ratioP1;P1;durP2;ratioP2;P2;SDS_P1;SDS_P2;PMS_P1;PMS_P2;Temp;Humidity;BMP_temperature;BMP_pressure;BME280_temperature;BME280_humidity;BME280_pressure;Samples;Min_cycle;Max_cycle;Signal;HPM_P1;HPM_P2
2022/05/11 00:02:56;;;;;;;0.98;0.90;;;17.20;48.40;19.30;94120.00;;;;10474024;28;45277;-61
2022/05/11 00:08:17;;;;;;;1.20;1.00;;;17.20;48.50;19.30;94113.00;;;;10475310;28;45191;-61
2022/05/11 00:13:37;;;;;;;1.58;1.00;;;17.20;48.50;19.30;94116.00;;;;10475208;28;45846;-61
2022/05/11 00:18:59;;;;;;;1.20;1.10;;;17.20;48.50;19.30;94122.00;;;;10475174;28;45175;-61
2022/05/11 00:24:20;;;;;;;1.38;1.00;;;17.20;48.70;19.30;94109.00;;;;10475509;28;45163;-61
2022/05/11 00:29:41;;;;;;;0.93;0.90;;;17.20;48.40;19.30;94122.00;;;;10475239;28;45159;-61
2022/05/11 00:35:03;;;;;;;1.20;0.90;;;17.20;48.40;19.30;94098.00;;;;10482863;28;45412;-61
2022/05/11 00:40:25;;;;;;;1.23;1.00;;;17.20;48.50;19.30;94114.00;;;;10482244;28;45887;-61
2022/05/11 00:45:50;;;;;;;1.00;0.80;;;17.20;48.40;19.30;94104.00;;;;10480850;28;45171;-61
2022/05/11 00:51:14;;;;;;;2.55;1.00;;;17.20;48.30;19.30;94093.00;;;;10482048;28;45149;-61
2022/05/11 00:56:38;;;;;;;1.10;0.90;;;17.20;48.30;19.30;94098.00;;;;10481296;28;45155;-60
2022/05/11 01:02:04;;;;;;;1.15;0.90;;;17.20;48.30;19.30;94094.00;;;;10475756;28;45207;-61
2022/05/11 01:07:28;;;;;;;1.17;1.00;;;17.20;48.10;19.30;94097.00;;;;10479637;28;45237;-61
2022/05/11 01:12:54;;;;;;;0.77;0.77;;;17.20;48.10;19.20;94083.00;;;;10481124;28;45688;-61
2022/05/11 01:18:15;;;;;;;0.85;0.80;;;17.20;48.10;19.20;94069.00;;;;10480306;28;45152;-61
2022/05/11 01:23:45;;;;;;;1.10;0.93;;;17.20;48.20;19.20;94082.00;;;;10480462;28;45177;-61
2022/05/11 01:29:07;;;;;;;0.82;0.80;;;17.20;48.20;19.20;94065.00;;;;10480556;28;45177;-61
2022/05/11 01:34:28;;;;;;;1.48;1.00;;;17.20;48.20;19.20;94065.00;;;;10480195;28;45870;-60
2022/05/11 01:39:49;;;;;;;1.02;0.90;;;17.20;48.00;19.20;94081.00;;;;10479777;28;45244;-61
2022/05/11 01:45:12;;;;;;;1.30;1.10;;;17.20;48.20;19.20;94067.00;;;;10479617;28;45201;-61
2022/05/11 01:50:32;;;;;;;1.83;1.00;;;17.20;48.30;19.20;94070.00;;;;10479832;28;45119;-61
2022/05/11 01:55:53;;;;;;;1.30;1.13;;;17.20;48.20;19.20;94077.00;;;;10479137;28;45215;-61
2022/05/11 02:01:19;;;;;;;1.50;1.00;;;17.20;48.30;19.20;94084.00;;;;10479658;28;45827;-60
2022/05/11 02:12:18;;;;;;;1.20;0.98;;;17.20;48.30;19.20;94075.00;;;;10479159;28;45486;-61
2022/05/11 02:17:41;;;;;;;1.00;0.90;;;17.20;48.30;19.20;94065.00;;;;10478461;28;45837;-61
2022/05/11 02:23:01;;;;;;;1.10;1.00;;;17.20;48.30;19.20;94075.00;;;;10479345;28;45246;-61
2022/05/11 02:28:23;;;;;;;1.13;1.00;;;17.20;48.30;19.20;94078.00;;;;10477795;28;45258;-61
2022/05/11 02:33:45;;;;;;;1.10;1.00;;;17.20;48.20;19.20;94077.00;;;;10478118;28;45140;-61
2022/05/11 02:39:05;;;;;;;1.13;0.90;;;17.20;48.30;19.20;94072.00;;;;10478161;28;45158;-61
2022/05/11 02:44:26;;;;;;;1.10;1.00;;;17.10;48.20;19.20;94075.00;;;;10477506;28;45700;-61
2022/05/11 02:49:47;;;;;;;1.73;1.20;;;17.10;48.10;19.20;94070.00;;;;10477527;28;45519;-61
2022/05/11 02:55:09;;;;;;;1.00;0.90;;;17.10;48.20;19.20;94072.00;;;;10476682;28;45253;-61
2022/05/11 03:00:31;;;;;;;1.02;0.93;;;17.10;48.20;19.20;94071.00;;;;10477324;28;45459;-60
2022/05/11 03:05:53;;;;;;;1.27;1.00;;;17.10;48.20;19.20;94074.00;;;;10476819;28;45669;-61
2022/05/11 03:11:13;;;;;;;1.15;0.90;;;17.10;49.00;19.20;94074.00;;;;10477882;28;45851;-61
2022/05/11 03:16:34;;;;;;;0.90;0.90;;;17.10;48.30;19.20;94065.00;;;;10476807;28;45179;-61
2022/05/11 03:21:56;;;;;;;0.80;0.80;;;17.10;48.20;19.20;94068.00;;;;10476856;28;45211;-60
2022/05/11 03:27:18;;;;;;;1.15;1.00;;;17.10;48.20;19.20;94065.00;;;;10476648;28;45179;-61
2022/05/11 03:38:19;;;;;;;1.00;0.90;;;17.10;48.20;19.10;94054.00;;;;10476393;28;45718;-61
2022/05/11 03:43:40;;;;;;;1.85;1.00;;;17.10;48.30;19.10;94062.00;;;;10475898;28;45167;-61
2022/05/11 03:49:00;;;;;;;1.08;0.90;;;17.10;48.30;19.20;94053.00;;;;10476271;28;45846;-61
2022/05/11 03:54:22;;;;;;;1.73;1.00;;;17.10;48.40;19.10;94065.00;;;;10476028;28;45187;-61
2022/05/11 03:59:43;;;;;;;1.00;0.90;;;17.10;48.30;19.10;94069.00;;;;10475348;28;45704;-61
2022/05/11 04:05:04;;;;;;;1.20;0.98;;;17.10;48.30;19.20;94074.00;;;;10476880;28;45199;-61
2022/05/11 04:10:27;;;;;;;1.30;1.10;;;17.10;48.40;19.20;94073.00;;;;10482862;28;45208;-61
2022/05/11 04:15:50;;;;;;;1.10;1.00;;;17.10;48.20;19.30;94068.00;;;;10482807;28;45717;-61
2022/05/11 04:21:12;;;;;;;1.35;1.00;;;17.20;48.20;19.40;94079.00;;;;10482746;28;45894;-61
2022/05/11 04:26:35;;;;;;;1.10;1.00;;;17.30;48.30;19.40;94058.00;;;;10482398;28;45919;-61
2022/05/11 04:31:57;;;;;;;1.00;0.90;;;17.40;48.00;19.40;94079.00;;;;10482479;28;45174;-61
2022/05/11 04:37:17;;;;;;;1.25;1.00;;;17.40;48.40;19.40;94073.00;;;;10482153;28;45106;-61
2022/05/11 04:42:39;;;;;;;1.10;1.00;;;17.40;48.50;19.50;94081.00;;;;10481654;28;45846;-61
2022/05/11 04:48:00;;;;;;;1.33;1.10;;;17.40;48.90;19.50;94076.00;;;;10481884;28;45184;-61
2022/05/11 04:53:20;;;;;;;1.40;1.20;;;17.40;49.80;19.50;94079.00;;;;10481676;28;45203;-61
2022/05/11 04:58:42;;;;;;;1.20;1.02;;;17.40;49.10;19.50;94067.00;;;;10481213;28;45209;-61
2022/05/11 05:04:03;;;;;;;1.20;1.10;;;17.40;48.60;19.50;94065.00;;;;10481267;28;45830;-61
2022/05/11 05:09:24;;;;;;;1.10;1.00;;;17.50;49.00;19.50;94093.00;;;;10480883;28;45168;-61
2022/05/11 05:14:47;;;;;;;1.23;1.00;;;17.50;49.20;19.50;94094.00;;;;10480893;28;45237;-61
2022/05/11 05:20:10;;;;;;;1.40;1.10;;;17.50;49.00;19.60;94101.00;;;;10480221;28;45197;-61
2022/05/11 05:25:30;;;;;;;1.25;1.15;;;17.50;49.00;19.60;94105.00;;;;10479862;28;45818;-61
2022/05/11 05:31:08;;;;;;;1.30;1.20;;;17.50;49.00;19.60;94101.00;;;;10480350;28;45676;-61
2022/05/11 05:36:29;;;;;;;1.73;1.20;;;17.50;49.00;19.60;94104.00;;;;10479878;28;45898;-61
2022/05/11 05:41:51;;;;;;;1.20;1.10;;;17.60;49.20;19.60;94120.00;;;;10479159;28;45490;-61
2022/05/11 05:47:13;;;;;;;2.38;1.10;;;17.60;49.10;19.60;94122.00;;;;10480805;28;45448;-61
2022/05/11 05:52:34;;;;;;;7.28;1.17;;;17.60;48.90;19.60;94128.00;;;;10462123;28;45250;-62
2022/05/11 05:57:54;;;;;;;5.75;1.45;;;17.60;49.50;19.50;94129.00;;;;10437730;28;45106;-61
2022/05/11 06:03:22;;;;;;;8.85;1.88;;;17.50;49.80;19.40;94120.00;;;;10437778;28;45144;-61
2022/05/11 06:08:42;;;;;;;;;;;17.50;50.10;19.40;94113.00;;;;10437975;28;45224;-61
2022/05/11 06:14:03;;;;;;;4.75;1.30;;;17.40;50.20;19.40;94122.00;;;;10437800;28;45200;-61
2022/05/11 06:19:25;;;;;;;7.22;1.90;;;17.40;50.20;19.50;94117.00;;;;10436595;28;45196;-60
2022/05/11 06:24:46;;;;;;;2.70;1.30;;;17.40;49.70;19.70;94125.00;;;;10437194;28;45192;-60
2022/05/11 06:30:08;;;;;;;4.28;1.30;;;17.60;49.10;19.70;94113.00;;;;10436048;28;45763;-60
2022/05/11 06:35:31;;;;;;;2.97;1.20;;;17.60;48.70;19.80;94118.00;;;;10435908;28;46396;-60
2022/05/11 06:40:52;;;;;;;4.50;1.17;;;17.70;48.50;19.80;94124.00;;;;10436938;28;45247;-60
2022/05/11 06:46:13;;;;;;;7.88;1.30;;;17.70;48.30;19.80;94096.00;;;;10435949;28;45681;-59
2022/05/11 06:51:35;;;;;;;2.60;1.10;;;17.80;48.30;19.80;94109.00;;;;10436381;28;45715;-60
2022/05/11 07:02:37;;;;;;;2.42;0.80;;;17.80;48.00;19.80;94114.00;;;;10436087;28;45160;-60
2022/05/11 07:08:00;;;;;;;6.47;1.02;;;17.80;47.80;19.90;94118.00;;;;10436065;28;45697;-60
2022/05/11 07:13:20;;;;;;;3.22;1.10;;;17.80;47.70;19.90;94096.00;;;;10435760;28;45199;-60
2022/05/11 07:18:41;;;;;;;1.50;0.90;;;17.80;47.60;19.90;94104.00;;;;10435729;28;45164;-60
2022/05/11 07:24:03;;;;;;;2.88;1.10;;;17.80;47.60;19.90;94108.00;;;;10435682;28;45192;-61
2022/05/11 07:29:24;;;;;;;3.60;1.05;;;17.80;47.50;19.90;94104.00;;;;10435484;28;45153;-60
2022/05/11 07:34:44;;;;;;;1.33;0.90;;;17.80;47.50;19.90;94099.00;;;;10434921;28;45245;-60
2022/05/11 07:40:09;;;;;;;2.05;1.10;;;17.80;47.40;19.90;94091.00;;;;10437317;28;45665;-60
2022/05/11 07:45:30;;;;;;;1.98;1.00;;;17.80;47.30;19.80;94101.00;;;;10441573;28;45681;-60
2022/05/11 07:50:51;;;;;;;2.40;1.10;;;17.80;47.40;19.80;94105.00;;;;10442289;28;45180;-60
2022/05/11 08:01:51;;;;;;;1.45;0.90;;;17.70;47.20;19.70;94103.00;;;;10441828;28;45267;-60
2022/05/11 08:07:13;;;;;;;2.10;1.02;;;17.70;47.30;19.80;94091.00;;;;10441404;28;45292;-60
2022/05/11 08:12:35;;;;;;;2.45;1.02;;;17.70;47.20;19.80;94081.00;;;;10441248;28;45666;-60
2022/05/11 08:17:55;;;;;;;1.33;0.93;;;17.70;47.20;19.70;94098.00;;;;10441726;28;45220;-62
2022/05/11 08:23:16;;;;;;;2.00;1.27;;;17.70;47.20;19.70;94097.00;;;;10441772;28;45109;-60
2022/05/11 08:28:38;;;;;;;2.75;1.40;;;17.60;49.40;19.70;94095.00;;;;10440987;28;45129;-60
2022/05/11 08:33:58;;;;;;;1.98;1.40;;;17.60;49.00;19.60;94090.00;;;;10441295;28;45113;-60
2022/05/11 08:39:19;;;;;;;4.13;1.50;;;17.60;49.10;19.60;94088.00;;;;10440622;28;45122;-60
2022/05/11 08:44:47;;;;;;;4.45;1.30;;;17.60;49.30;19.60;94094.00;;;;10440554;28;45225;-60
2022/05/11 08:50:12;;;;;;;2.17;1.20;;;17.60;49.00;19.70;94083.00;;;;10440553;28;45355;-60
2022/05/11 08:55:41;;;;;;;2.15;1.10;;;17.60;48.70;19.70;94073.00;;;;10458186;28;45220;-61
2022/05/11 09:01:07;;;;;;;2.55;1.30;;;17.60;48.60;19.60;94088.00;;;;10480062;28;45710;-60
2022/05/11 09:06:30;;;;;;;1.63;1.20;;;17.60;48.50;19.60;94073.00;;;;10478919;28;45854;-60
2022/05/11 09:11:54;;;;;;;2.13;1.35;;;17.60;48.50;19.60;94082.00;;;;10480937;28;45843;-60
2022/05/11 09:17:26;;;;;;;1.65;1.20;;;17.50;48.40;19.60;94082.00;;;;10481817;28;45256;-60
2022/05/11 09:23:01;;;;;;;1.45;1.20;;;17.50;48.30;19.60;94068.00;;;;10481470;28;45121;-60
2022/05/11 09:28:26;;;;;;;2.03;1.27;;;17.50;48.30;19.60;94079.00;;;;10480488;28;45775;-60
2022/05/11 09:34:00;;;;;;;1.63;1.20;;;17.50;48.20;19.60;94068.00;;;;10480742;28;45187;-61
2022/05/11 09:39:20;;;;;;;1.85;1.10;;;17.50;48.10;19.60;94075.00;;;;10480388;28;45130;-61
2022/05/11 09:44:44;;;;;;;1.73;1.20;;;17.50;48.10;19.50;94074.00;;;;10480457;28;45486;-60
2022/05/11 09:50:22;;;;;;;1.90;1.25;;;17.50;48.10;19.50;94077.00;;;;10477694;28;45249;-61
2022/05/11 09:55:43;;;;;;;2.85;1.10;;;17.50;48.10;19.50;94068.00;;;;10479627;28;45264;-60
2022/05/11 10:01:13;;;;;;;2.05;1.13;;;17.50;48.10;19.50;94062.00;;;;10457073;28;45211;-60
2022/05/11 10:06:44;;;;;;;1.75;1.20;;;17.40;48.10;19.50;94047.00;;;;10456633;28;45226;-61
2022/05/11 10:12:27;;;;;;;1.88;1.10;;;17.50;48.00;19.50;94060.00;;;;10475450;28;45294;-60
2022/05/11 10:24:01;;;;;;;2.03;1.50;;;17.50;50.40;19.40;94044.00;;;;10479517;28;45132;-59
2022/05/11 10:30:14;;;;;;;2.47;1.30;;;17.40;50.30;19.30;94049.00;;;;10479000;28;45133;-59
2022/05/11 10:36:01;;;;;;;2.17;1.50;;;17.40;50.60;19.30;94024.00;;;;10478298;28;45855;-59
2022/05/11 10:41:59;;;;;;;1.55;1.42;;;17.30;51.00;19.30;94034.00;;;;10478190;28;45098;-59
2022/05/11 10:48:00;;;;;;;2.00;1.60;;;17.30;51.10;19.30;94021.00;;;;10478018;28;45108;-60
2022/05/11 10:53:40;;;;;;;2.22;1.48;;;17.30;51.20;19.30;94012.00;;;;10466296;28;45156;-59
2022/05/11 10:59:58;;;;;;;2.92;1.52;;;17.20;51.00;19.30;94009.00;;;;10467953;28;45286;-59
2022/05/11 11:05:37;;;;;;;2.75;1.30;;;17.20;51.10;19.20;94003.00;;;;10476577;28;45311;-60
2022/05/11 11:11:10;;;;;;;3.08;1.65;;;17.20;51.10;19.20;93990.00;;;;10474910;28;45166;-60
2022/05/11 11:16:37;;;;;;;2.50;1.33;;;17.20;50.90;19.20;93969.00;;;;10476811;28;45136;-60
2022/05/11 11:22:08;;;;;;;2.00;1.45;;;17.20;51.00;19.20;93978.00;;;;10477826;28;45314;-60
2022/05/11 11:28:08;;;;;;;1.88;1.50;;;17.20;51.00;19.20;93964.00;;;;10477112;28;45874;-59
2022/05/11 11:33:34;;;;;;;2.72;1.35;;;17.20;51.10;19.20;93971.00;;;;10460114;28;45225;-60
2022/05/11 11:39:03;;;;;;;1.35;1.25;;;17.20;51.10;19.20;93960.00;;;;10457186;28;46140;-60
2022/05/11 11:44:31;;;;;;;2.55;1.33;;;17.20;51.00;19.20;93962.00;;;;10477591;28;45436;-60
2022/05/11 11:49:54;;;;;;;2.92;1.60;;;17.20;51.00;19.20;93955.00;;;;10476650;28;45140;-60
2022/05/11 11:55:27;;;;;;;2.67;1.50;;;17.20;51.00;19.20;93954.00;;;;10476092;28;45645;-60
2022/05/11 12:01:07;;;;;;;2.53;1.50;;;17.20;50.90;19.20;93949.00;;;;10476600;28;45258;-60
2022/05/11 12:17:53;;;;;;;1.85;1.20;;;17.20;50.80;19.20;93926.00;;;;10476030;28;45224;-60
2022/05/11 12:23:24;;;;;;;1.58;1.30;;;17.20;50.80;19.20;93913.00;;;;10475763;28;45221;-60
2022/05/11 12:28:45;;;;;;;1.60;1.30;;;17.20;50.80;19.20;93899.00;;;;10480288;28;45170;-60
2022/05/11 12:34:07;;;;;;;1.77;1.35;;;17.20;50.80;19.20;93920.00;;;;10482956;28;45162;-60
2022/05/11 12:39:36;;;;;;;2.15;1.52;;;17.20;50.90;19.30;93908.00;;;;10482263;28;45830;-60
2022/05/11 12:44:57;;;;;;;1.90;1.30;;;17.30;50.80;19.30;93909.00;;;;10481522;28;45226;-59
2022/05/11 12:50:22;;;;;;;1.67;1.15;;;17.30;50.80;19.40;93901.00;;;;10482303;28;45804;-60
2022/05/11 12:55:47;;;;;;;3.33;1.23;;;17.30;50.50;19.40;93899.00;;;;10481485;28;45791;-58
2022/05/11 13:01:12;;;;;;;3.15;1.38;;;17.30;50.00;19.50;93899.00;;;;10481827;28;45191;-59
2022/05/11 13:06:37;;;;;;;3.97;1.38;;;17.40;49.80;19.50;93884.00;;;;10481238;28;45911;-59
2022/05/11 13:11:59;;;;;;;2.13;1.30;;;17.50;49.60;19.50;93884.00;;;;10481193;28;45158;-59
2022/05/11 13:17:25;;;;;;;2.63;1.30;;;17.50;50.00;19.60;93869.00;;;;10481422;28;45129;-59
2022/05/11 13:22:50;;;;;;;3.00;1.30;;;17.60;49.70;19.60;93868.00;;;;10480706;28;45243;-59
2022/05/11 13:28:15;;;;;;;2.42;1.08;;;17.60;49.10;19.60;93882.00;;;;10481462;28;45147;-59
2022/05/11 13:33:44;;;;;;;2.53;1.25;;;17.60;48.90;19.60;93865.00;;;;10480799;28;45161;-59
2022/05/11 13:39:28;;;;;;;1.67;1.27;;;17.60;48.70;19.70;93868.00;;;;10456279;28;45269;-60
2022/05/11 13:44:56;;;;;;;2.08;1.10;;;17.60;48.60;19.70;93867.00;;;;10457765;28;45684;-60
2022/05/11 13:50:32;;;;;;;;;;;17.60;48.50;19.70;93862.00;;;;10461014;28;45183;-59
2022/05/11 13:56:10;;;;;;;2.03;1.40;;;17.70;48.60;19.70;93872.00;;;;10477990;28;45884;-59
2022/05/11 14:01:40;;;;;;;1.65;1.00;;;17.70;48.50;19.80;93861.00;;;;10465050;28;45162;-59
2022/05/11 14:07:05;;;;;;;1.33;1.00;;;17.70;48.40;19.80;93851.00;;;;10468860;28;45184;-60
2022/05/11 14:12:26;;;;;;;1.35;1.05;;;17.70;48.00;19.80;93862.00;;;;10479513;28;45846;-60
2022/05/11 14:17:50;;;;;;;2.50;1.23;;;17.80;48.10;19.80;93853.00;;;;10479417;28;45784;-59
2022/05/11 14:23:11;;;;;;;1.75;1.00;;;17.80;47.90;19.80;93851.00;;;;10479312;28;45262;-59
2022/05/11 14:28:32;;;;;;;1.85;1.30;;;17.80;48.00;19.80;93853.00;;;;10479354;28;45277;-59
2022/05/11 14:33:54;;;;;;;1.80;1.20;;;17.80;48.00;19.90;93850.00;;;;10476623;28;45669;-59
2022/05/11 14:39:18;;;;;;;1.52;1.10;;;17.80;48.00;19.90;93848.00;;;;10477267;28;45425;-59
2022/05/11 14:44:38;;;;;;;1.25;1.00;;;17.90;48.10;19.90;93838.00;;;;10477890;28;45147;-59
2022/05/11 14:50:01;;;;;;;2.70;1.25;;;17.90;48.00;19.90;93851.00;;;;10477212;28;45249;-59
2022/05/11 14:55:22;;;;;;;1.30;1.00;;;17.90;47.90;19.90;93839.00;;;;10478113;28;45109;-59
2022/05/11 15:06:23;;;;;;;2.13;1.08;;;17.90;47.60;20.00;93843.00;;;;10477848;28;45692;-59
2022/05/11 15:17:26;;;;;;;1.50;1.10;;;18.00;47.30;20.00;93829.00;;;;10477489;28;45229;-60
2022/05/11 15:22:48;;;;;;;0.95;0.77;;;18.00;47.20;20.10;93835.00;;;;10477367;28;45688;-59
2022/05/11 15:28:09;;;;;;;1.15;1.00;;;18.00;47.10;20.10;93845.00;;;;10460697;28;45160;-60
2022/05/11 15:33:32;;;;;;;1.08;0.80;;;18.00;47.30;20.10;93843.00;;;;10472058;28;45793;-60
2022/05/11 15:38:54;;;;;;;1.42;1.20;;;18.00;47.10;20.10;93845.00;;;;10476727;28;45759;-60
2022/05/11 15:44:15;;;;;;;1.30;1.10;;;18.00;47.00;20.10;93850.00;;;;10475599;28;45212;-59
2022/05/11 15:49:37;;;;;;;1.30;1.20;;;18.00;46.90;20.10;93856.00;;;;10476415;28;45148;-61
2022/05/11 15:54:58;;;;;;;1.10;0.80;;;18.00;46.90;20.10;93853.00;;;;10476267;28;45748;-59
2022/05/11 16:00:25;;;;;;;1.25;1.02;;;18.10;46.80;20.10;93836.00;;;;10477688;28;45338;-60
2022/05/11 16:05:47;;;;;;;2.65;1.13;;;18.10;46.70;20.20;93846.00;;;;10483603;28;45187;-60
2022/05/11 16:11:20;;;;;;;0.95;0.85;;;18.20;46.70;20.20;93845.00;;;;10483782;28;45215;-60
2022/05/11 16:16:46;;;;;;;1.98;1.00;;;18.20;46.60;20.20;93828.00;;;;10483037;28;45211;-59
2022/05/11 16:22:07;;;;;;;1.38;1.13;;;18.20;46.50;20.30;93842.00;;;;10483164;28;45202;-60
2022/05/11 16:27:30;;;;;;;1.48;1.00;;;18.20;46.50;20.30;93837.00;;;;10482424;28;45692;-60
2022/05/11 16:32:51;;;;;;;1.25;1.05;;;18.20;46.40;20.30;93838.00;;;;10483079;28;45229;-59
2022/05/11 16:38:11;;;;;;;1.13;0.93;;;18.20;46.40;20.30;93822.00;;;;10482765;28;45784;-60
2022/05/11 16:43:33;;;;;;;1.10;0.95;;;18.30;46.30;20.30;93831.00;;;;10482076;28;45760;-59
2022/05/11 16:48:54;;;;;;;1.10;0.90;;;18.30;46.30;20.30;93823.00;;;;10482074;28;45112;-59
2022/05/11 16:54:15;;;;;;;1.00;0.90;;;18.30;46.30;20.30;93830.00;;;;10481779;28;45138;-59
2022/05/11 16:59:37;;;;;;;1.48;0.93;;;18.30;46.30;20.30;93828.00;;;;10482138;28;45680;-60
2022/05/11 17:04:59;;;;;;;1.20;0.88;;;18.30;46.30;20.30;93829.00;;;;10481774;28;45207;-59
2022/05/11 17:10:19;;;;;;;1.00;0.80;;;18.30;46.30;20.30;93827.00;;;;10481674;28;45164;-60
2022/05/11 17:15:52;;;;;;;0.90;0.80;;;18.30;46.20;20.30;93822.00;;;;10480101;28;45259;-60
2022/05/11 17:21:13;;;;;;;1.58;0.90;;;18.20;46.10;20.30;93826.00;;;;10481613;28;45179;-60
2022/05/11 17:26:34;;;;;;;1.38;0.80;;;18.20;46.20;20.30;93821.00;;;;10480685;28;45096;-60
2022/05/11 17:31:56;;;;;;;1.58;0.90;;;18.20;46.20;20.30;93825.00;;;;10480694;28;45119;-60
2022/05/11 17:37:17;;;;;;;0.90;0.70;;;18.20;46.20;20.20;93836.00;;;;10480738;28;45185;-60
2022/05/11 17:42:40;;;;;;;0.73;0.73;;;18.20;46.20;20.20;93831.00;;;;10480235;28;45189;-61
2022/05/11 17:48:03;;;;;;;1.23;1.00;;;18.10;46.20;20.20;93820.00;;;;10504872;22;45792;-62
2022/05/11 17:53:23;;;;;;;0.85;0.70;;;18.10;46.30;20.20;93827.00;;;;10480102;28;45668;-61
2022/05/11 17:58:45;;;;;;;1.13;0.70;;;18.10;46.30;20.10;93838.00;;;;10480575;28;45892;-61
2022/05/11 18:04:10;;;;;;;1.00;0.90;;;18.10;46.40;20.10;93828.00;;;;10479760;28;45696;-62
2022/05/11 18:09:30;;;;;;;0.70;0.70;;;18.00;46.40;20.10;93837.00;;;;10479448;28;45184;-61
2022/05/11 18:14:51;;;;;;;0.70;0.60;;;18.00;46.40;20.10;93846.00;;;;10479545;28;45128;-62
2022/05/11 18:20:16;;;;;;;1.00;0.90;;;18.00;46.50;20.00;93841.00;;;;10479496;28;45174;-61
2022/05/11 18:25:38;;;;;;;1.00;0.90;;;18.00;46.50;20.00;93856.00;;;;10477594;28;45155;-61
2022/05/11 18:30:59;;;;;;;0.77;0.70;;;18.00;46.50;20.00;93863.00;;;;10479070;28;45238;-61
2022/05/11 18:36:21;;;;;;;0.77;0.70;;;18.00;46.60;20.00;93858.00;;;;10479083;28;45761;-61
2022/05/11 18:41:42;;;;;;;0.70;0.70;;;17.90;46.50;20.00;93870.00;;;;10478866;28;45239;-61
2022/05/11 18:47:02;;;;;;;0.77;0.70;;;17.90;46.60;19.90;93875.00;;;;10478830;28;45418;-62
2022/05/11 18:52:24;;;;;;;1.00;0.63;;;17.90;46.60;19.90;93887.00;;;;10478362;28;45116;-62
2022/05/11 18:57:45;;;;;;;0.70;0.70;;;17.90;46.60;19.90;93891.00;;;;10477721;28;45103;-62
2022/05/11 19:03:06;;;;;;;0.75;0.75;;;17.80;46.60;19.90;93883.00;;;;10478252;28;45751;-61
2022/05/11 19:08:28;;;;;;;0.80;0.70;;;17.80;46.60;19.90;93884.00;;;;10477631;28;45831;-61
2022/05/11 19:13:48;;;;;;;0.68;0.68;;;17.80;46.60;19.90;93906.00;;;;10477429;28;45720;-62
2022/05/11 19:19:09;;;;;;;0.60;0.60;;;17.80;46.60;19.90;93910.00;;;;10477476;28;45197;-62
2022/05/11 19:24:31;;;;;;;1.10;0.77;;;17.80;46.60;19.80;93916.00;;;;10477409;28;45119;-61
2022/05/11 19:29:52;;;;;;;0.70;0.70;;;17.80;46.70;19.80;93916.00;;;;10476974;28;45828;-61
2022/05/11 19:35:13;;;;;;;1.15;0.65;;;17.80;46.70;19.80;93929.00;;;;10476436;28;45743;-61
2022/05/11 19:40:36;;;;;;;0.73;0.73;;;17.70;46.60;19.80;93929.00;;;;10477350;28;45773;-61
2022/05/11 19:45:56;;;;;;;0.60;0.60;;;17.70;46.60;19.80;93934.00;;;;10476155;28;45227;-61
2022/05/11 19:51:18;;;;;;;0.60;0.60;;;17.70;46.60;19.80;93933.00;;;;10477200;28;45133;-61
2022/05/11 19:56:40;;;;;;;0.77;0.70;;;17.70;46.60;19.80;93942.00;;;;10476202;28;45157;-61
2022/05/11 20:02:01;;;;;;;0.70;0.70;;;17.70;46.70;19.80;93939.00;;;;10476611;28;45195;-62
2022/05/11 20:07:25;;;;;;;0.50;0.50;;;17.70;46.70;19.80;93939.00;;;;10476239;28;45246;-62
2022/05/11 20:12:47;;;;;;;0.70;0.70;;;17.70;46.60;19.80;93943.00;;;;10476222;28;45187;-62
2022/05/11 20:18:08;;;;;;;0.70;0.70;;;17.70;46.70;19.70;93928.00;;;;10476207;28;45249;-61
2022/05/11 20:23:29;;;;;;;1.20;0.80;;;17.70;46.60;19.70;93944.00;;;;10476025;28;45245;-62
2022/05/11 20:28:53;;;;;;;0.70;0.70;;;17.70;46.70;19.70;93943.00;;;;10475681;28;45175;-62
2022/05/11 20:39:53;;;;;;;0.73;0.70;;;17.60;46.60;19.70;93952.00;;;;10475356;28;45723;-62
2022/05/11 20:45:19;;;;;;;1.65;0.60;;;17.60;46.60;19.70;93954.00;;;;10475249;28;45672;-62
2022/05/11 20:50:42;;;;;;;0.88;0.77;;;17.60;46.60;19.70;93940.00;;;;10481341;28;45219;-62
2022/05/11 20:56:03;;;;;;;0.70;0.60;;;17.60;46.60;19.70;93948.00;;;;10481954;28;45273;-63
2022/05/11 21:01:25;;;;;;;0.70;0.70;;;17.60;46.70;19.70;93954.00;;;;10482366;28;45865;-62
2022/05/11 21:06:48;;;;;;;1.00;0.80;;;17.60;46.60;19.60;93942.00;;;;10481945;28;45092;-62
2022/05/11 21:12:10;;;;;;;0.60;0.60;;;17.60;46.60;19.60;93956.00;;;;10481615;28;45196;-62
2022/05/11 21:17:32;;;;;;;0.73;0.70;;;17.60;46.60;19.60;93950.00;;;;10481340;28;45808;-62
2022/05/11 21:22:54;;;;;;;0.60;0.50;;;17.60;46.60;19.60;93953.00;;;;10481366;28;45123;-62
2022/05/11 21:28:14;;;;;;;0.60;0.60;;;17.60;46.60;19.60;93948.00;;;;10481235;28;45193;-62
2022/05/11 21:33:36;;;;;;;0.80;0.70;;;17.50;46.60;19.60;93957.00;;;;10481176;28;45252;-61
2022/05/11 21:38:57;;;;;;;1.15;0.88;;;17.50;46.50;19.60;93955.00;;;;10480884;28;45133;-62
2022/05/11 21:44:17;;;;;;;0.90;0.82;;;17.60;46.60;19.60;93967.00;;;;10480696;28;45536;-63
2022/05/11 21:49:40;;;;;;;0.60;0.60;;;17.50;46.60;19.60;93959.00;;;;10480401;28;45303;-62
2022/05/11 21:55:00;;;;;;;0.60;0.50;;;17.50;46.60;19.60;93954.00;;;;10480077;28;45106;-61
2022/05/11 22:00:48;;;;;;;0.80;0.80;;;17.50;46.60;19.60;93943.00;;;;10480165;28;45143;-61
2022/05/11 22:06:10;;;;;;;0.77;0.77;;;17.50;47.30;19.60;93960.00;;;;10479645;28;45816;-62
2022/05/11 22:11:32;;;;;;;0.60;0.60;;;17.50;46.60;19.50;93972.00;;;;10480110;28;45235;-62
2022/05/11 22:16:52;;;;;;;0.60;0.60;;;17.50;46.60;19.50;93972.00;;;;10479516;28;45251;-62
2022/05/11 22:22:14;;;;;;;0.80;0.70;;;17.50;46.70;19.50;93972.00;;;;10479860;28;45136;-61
2022/05/11 22:27:35;;;;;;;0.57;0.50;;;17.50;46.60;19.50;93972.00;;;;10479167;28;45112;-61
2022/05/11 22:32:56;;;;;;;0.88;0.68;;;17.50;46.60;19.50;93978.00;;;;10479793;28;45746;-61
2022/05/11 22:38:20;;;;;;;0.55;0.55;;;17.50;46.50;19.50;93966.00;;;;10478666;28;45759;-61
2022/05/11 22:43:41;;;;;;;0.60;0.60;;;17.40;46.60;19.50;93971.00;;;;10478034;28;45295;-62
2022/05/11 22:49:02;;;;;;;0.60;0.60;;;17.50;46.60;19.50;93976.00;;;;10478718;28;45233;-62
2022/05/11 22:54:24;;;;;;;0.70;0.70;;;17.50;46.60;19.50;93975.00;;;;10478139;28;45245;-61
2022/05/11 22:59:44;;;;;;;0.90;0.70;;;17.40;46.50;19.50;93978.00;;;;10479353;28;45368;-61
2022/05/11 23:05:06;;;;;;;0.50;0.50;;;17.50;46.60;19.50;93979.00;;;;10478115;28;45211;-61
2022/05/11 23:10:32;;;;;;;1.05;0.60;;;17.40;46.50;19.50;93987.00;;;;10477285;28;45779;-62
2022/05/11 23:15:53;;;;;;;1.08;0.80;;;17.40;46.50;19.50;93975.00;;;;10477751;28;45152;-60
2022/05/11 23:21:14;;;;;;;0.75;0.57;;;17.40;46.50;19.50;93984.00;;;;10477996;28;45212;-61
2022/05/11 23:26:36;;;;;;;0.60;0.60;;;17.40;46.60;19.50;93983.00;;;;10477358;28;45210;-62
2022/05/11 23:31:56;;;;;;;0.60;0.60;;;17.40;46.50;19.50;94003.00;;;;10477634;28;45188;-60
2022/05/11 23:37:18;;;;;;;0.90;0.60;;;17.40;46.50;19.50;93998.00;;;;10477191;28;45175;-62
2022/05/11 23:42:40;;;;;;;1.00;0.70;;;17.40;46.50;19.50;94009.00;;;;10477166;28;45715;-62
2022/05/11 23:48:00;;;;;;;0.60;0.60;;;17.40;46.50;19.50;93993.00;;;;10552886;22;45672;-62
2022/05/11 23:53:21;;;;;;;0.75;0.70;;;17.40;46.50;19.50;94008.00;;;;10518610;28;45707;-61
2022/05/11 23:58:43;;;;;;;0.77;0.60;;;17.40;46.50;19.50;94004.00;;;;10476649;28;45210;-61
